createdAt,value
2016-03-20T00:00:06.789Z,0
2016-03-20T00:01:06.792Z,0
2016-03-20T00:02:06.654Z,0
2016-03-20T00:03:06.798Z,0
2016-03-20T00:04:06.784Z,0
2016-03-20T00:05:06.803Z,0
2016-03-20T00:06:06.789Z,0
2016-03-20T00:07:06.652Z,0
2016-03-20T00:08:06.810Z,0
2016-03-20T00:09:06.813Z,0
2016-03-20T00:10:06.816Z,0
2016-03-20T00:11:06.803Z,0
2016-03-20T00:12:06.790Z,0
2016-03-20T00:13:06.777Z,0
2016-03-20T00:14:06.779Z,0
2016-03-20T00:15:06.783Z,0
2016-03-20T00:16:06.769Z,0
2016-03-20T00:17:06.788Z,0
2016-03-20T00:18:06.774Z,0
2016-03-20T00:19:06.794Z,0
2016-03-20T00:20:06.780Z,0
2016-03-20T00:21:06.783Z,0
2016-03-20T00:22:06.770Z,0
2016-03-20T00:23:06.788Z,0
2016-03-20T00:24:06.775Z,0
2016-03-20T00:25:06.778Z,0
2016-03-20T00:26:06.796Z,0
2016-03-20T00:27:06.799Z,0
2016-03-20T00:28:06.770Z,0
2016-03-20T00:29:06.789Z,0
2016-03-20T00:30:06.760Z,0
2016-03-20T00:31:06.794Z,0
2016-03-20T00:32:06.765Z,0
2016-03-20T00:33:06.753Z,0
2016-03-20T00:34:06.911Z,0
2016-03-20T00:35:06.773Z,0
2016-03-20T00:36:06.776Z,0
2016-03-20T00:37:06.764Z,0
2016-03-20T00:38:06.781Z,0
2016-03-20T00:39:06.769Z,0
2016-03-20T00:40:06.756Z,0
2016-03-20T00:41:06.744Z,0
2016-03-20T00:42:06.730Z,0
2016-03-20T00:43:06.749Z,0
2016-03-20T00:44:06.751Z,0
2016-03-20T00:45:06.754Z,0
2016-03-20T00:46:06.757Z,0
2016-03-20T00:47:06.743Z,0
2016-03-20T00:48:06.747Z,0
2016-03-20T00:49:06.733Z,0
2016-03-20T00:50:06.752Z,0
2016-03-20T00:51:06.770Z,0
2016-03-20T00:52:06.757Z,0
2016-03-20T00:53:06.728Z,0
2016-03-20T00:54:06.746Z,0
2016-03-20T00:55:06.734Z,0
2016-03-20T00:56:06.737Z,0
2016-03-20T00:57:06.739Z,0
2016-03-20T00:58:06.742Z,0
2016-03-20T00:59:06.745Z,0
2016-03-20T01:00:06.732Z,0
2016-03-20T01:01:06.797Z,0
2016-03-20T01:02:06.737Z,0
2016-03-20T01:03:06.756Z,0
2016-03-20T01:04:06.742Z,0
2016-03-20T01:05:06.729Z,0
2016-03-20T01:06:06.732Z,0
2016-03-20T01:07:06.720Z,0
2016-03-20T01:08:06.722Z,0
2016-03-20T01:09:06.724Z,0
2016-03-20T01:10:06.712Z,0
2016-03-20T01:11:06.714Z,0
2016-03-20T01:12:06.717Z,0
2016-03-20T01:13:06.719Z,0
2016-03-20T01:14:06.738Z,0
2016-03-20T01:15:06.741Z,0
2016-03-20T01:16:06.821Z,0
2016-03-20T01:17:06.558Z,0
2016-03-20T01:18:06.702Z,0
2016-03-20T01:19:06.721Z,0
2016-03-20T01:20:06.723Z,0
2016-03-20T01:21:06.726Z,0
2016-03-20T01:22:06.712Z,0
2016-03-20T01:23:06.699Z,0
2016-03-20T01:24:06.734Z,0
2016-03-20T01:25:06.721Z,0
2016-03-20T01:26:06.708Z,0
2016-03-20T01:27:06.710Z,0
2016-03-20T01:28:06.713Z,0
2016-03-20T01:29:06.685Z,0
2016-03-20T01:30:06.532Z,0
2016-03-20T01:31:06.721Z,0
2016-03-20T01:32:06.709Z,0
2016-03-20T01:33:06.712Z,0
2016-03-20T01:34:06.729Z,0
2016-03-20T01:35:06.684Z,0
2016-03-20T01:36:06.703Z,0
2016-03-20T01:37:06.722Z,0
2016-03-20T01:38:06.693Z,0
2016-03-20T01:39:06.711Z,0
2016-03-20T01:40:06.684Z,0
2016-03-20T01:41:06.686Z,0
2016-03-20T01:42:06.720Z,0
2016-03-20T01:43:06.675Z,0
2016-03-20T01:44:06.694Z,0
2016-03-20T01:45:06.680Z,0
2016-03-20T01:46:06.777Z,0
2016-03-20T01:47:06.686Z,0
2016-03-20T01:48:06.719Z,0
2016-03-20T01:49:05.941Z,0
2016-03-20T01:50:06.694Z,0
2016-03-20T01:51:06.666Z,0
2016-03-20T01:52:06.685Z,0
2016-03-20T01:53:06.702Z,0
2016-03-20T01:54:06.658Z,0
2016-03-20T01:55:06.677Z,0
2016-03-20T01:56:06.663Z,0
2016-03-20T01:57:06.681Z,0
2016-03-20T01:58:06.701Z,0
2016-03-20T01:59:06.671Z,0
2016-03-20T02:00:06.690Z,0
2016-03-20T02:01:06.723Z,0
2016-03-20T02:02:06.679Z,0
2016-03-20T02:03:06.698Z,0
2016-03-20T02:04:06.670Z,0
2016-03-20T02:05:06.673Z,0
2016-03-20T02:06:06.690Z,0
2016-03-20T02:07:06.661Z,0
2016-03-20T02:08:06.664Z,0
2016-03-20T02:09:06.651Z,0
2016-03-20T02:10:06.654Z,0
2016-03-20T02:11:06.657Z,0
2016-03-20T02:12:06.645Z,0
2016-03-20T02:13:06.678Z,0
2016-03-20T02:14:06.650Z,0
2016-03-20T02:15:06.683Z,0
2016-03-20T02:16:06.655Z,0
2016-03-20T02:17:06.642Z,0
2016-03-20T02:18:06.675Z,0
2016-03-20T02:19:06.710Z,0
2016-03-20T02:20:06.649Z,0
2016-03-20T02:21:06.668Z,0
2016-03-20T02:22:06.640Z,0
2016-03-20T02:23:06.674Z,0
2016-03-20T02:24:06.661Z,0
2016-03-20T02:25:06.648Z,0
2016-03-20T02:26:06.651Z,0
2016-03-20T02:27:06.654Z,0
2016-03-20T02:28:06.656Z,0
2016-03-20T02:29:06.627Z,0
2016-03-20T02:30:06.662Z,0
2016-03-20T02:31:06.648Z,0
2016-03-20T02:32:06.635Z,0
2016-03-20T02:33:06.623Z,0
2016-03-20T02:34:06.640Z,0
2016-03-20T02:35:06.643Z,0
2016-03-20T02:36:06.631Z,0
2016-03-20T02:37:06.649Z,0
2016-03-20T02:38:06.651Z,0
2016-03-20T02:39:06.639Z,0
2016-03-20T02:40:06.673Z,0
2016-03-20T02:41:06.628Z,0
2016-03-20T02:42:06.631Z,0
2016-03-20T02:43:06.617Z,0
2016-03-20T02:44:06.636Z,0
2016-03-20T02:45:06.639Z,0
2016-03-20T02:46:06.625Z,0
2016-03-20T02:47:06.645Z,0
2016-03-20T02:48:06.616Z,0
2016-03-20T02:49:06.619Z,0
2016-03-20T02:50:06.621Z,0
2016-03-20T02:51:06.624Z,0
2016-03-20T02:52:06.627Z,0
2016-03-20T02:53:06.629Z,0
2016-03-20T02:54:06.632Z,0
2016-03-20T02:55:06.619Z,0
2016-03-20T02:56:06.607Z,0
2016-03-20T02:57:06.609Z,0
2016-03-20T02:58:06.612Z,0
2016-03-20T02:59:06.598Z,0
2016-03-20T03:00:06.602Z,0
2016-03-20T03:01:06.635Z,0
2016-03-20T03:02:06.606Z,0
2016-03-20T03:03:06.594Z,0
2016-03-20T03:04:06.643Z,0
2016-03-20T03:05:06.615Z,0
2016-03-20T03:06:06.601Z,0
2016-03-20T03:07:06.611Z,0
2016-03-20T03:08:06.614Z,0
2016-03-20T03:09:06.601Z,0
2016-03-20T03:10:06.603Z,0
2016-03-20T03:11:06.591Z,0
2016-03-20T03:12:06.594Z,0
2016-03-20T03:13:06.611Z,0
2016-03-20T03:14:06.599Z,0
2016-03-20T03:15:06.617Z,0
2016-03-20T03:16:06.604Z,0
2016-03-20T03:17:06.591Z,0
2016-03-20T03:18:06.610Z,0
2016-03-20T03:19:06.596Z,0
2016-03-20T03:20:06.599Z,0
2016-03-20T03:21:06.587Z,0
2016-03-20T03:22:06.604Z,0
2016-03-20T03:23:06.592Z,0
2016-03-20T03:24:06.595Z,0
2016-03-20T03:25:06.581Z,0
2016-03-20T03:26:06.585Z,0
2016-03-20T03:27:06.603Z,0
2016-03-20T03:28:06.590Z,0
2016-03-20T03:29:06.576Z,0
2016-03-20T03:30:06.611Z,0
2016-03-20T03:31:06.581Z,0
2016-03-20T03:32:06.585Z,0
2016-03-20T03:33:06.587Z,0
2016-03-20T03:34:06.590Z,0
2016-03-20T03:35:06.577Z,0
2016-03-20T03:36:06.580Z,0
2016-03-20T03:37:06.583Z,0
2016-03-20T03:38:06.586Z,0
2016-03-20T03:39:06.588Z,0
2016-03-20T03:40:06.590Z,0
2016-03-20T03:41:06.594Z,0
2016-03-20T03:42:06.596Z,0
2016-03-20T03:43:06.583Z,0
2016-03-20T03:44:06.569Z,0
2016-03-20T03:45:06.557Z,0
2016-03-20T03:46:06.560Z,0
2016-03-20T03:47:06.578Z,0
2016-03-20T03:48:06.580Z,0
2016-03-20T03:49:06.568Z,0
2016-03-20T03:50:06.586Z,0
2016-03-20T03:51:06.573Z,0
2016-03-20T03:52:06.577Z,0
2016-03-20T03:53:06.579Z,0
2016-03-20T03:54:06.551Z,0
2016-03-20T03:55:06.584Z,0
2016-03-20T03:56:06.399Z,0
2016-03-20T03:57:06.590Z,0
2016-03-20T03:58:06.561Z,0
2016-03-20T03:59:06.564Z,0
2016-03-20T04:00:06.566Z,0
2016-03-20T04:01:06.554Z,0
2016-03-20T04:02:06.556Z,0
2016-03-20T04:03:06.580Z,0
2016-03-20T04:04:06.550Z,0
2016-03-20T04:05:06.569Z,0
2016-03-20T04:06:06.556Z,0
2016-03-20T04:07:06.652Z,0
2016-03-20T04:08:06.577Z,0
2016-03-20T04:09:06.548Z,0
2016-03-20T04:10:06.410Z,0
2016-03-20T04:11:06.555Z,0
2016-03-20T04:12:06.541Z,0
2016-03-20T04:13:06.559Z,0
2016-03-20T04:14:06.547Z,0
2016-03-20T04:15:06.565Z,0
2016-03-20T04:16:06.535Z,0
2016-03-20T04:17:06.554Z,0
2016-03-20T04:18:06.573Z,0
2016-03-20T04:19:06.528Z,0
2016-03-20T04:20:06.547Z,0
2016-03-20T04:21:06.549Z,0
2016-03-20T04:22:06.536Z,0
2016-03-20T04:23:06.555Z,0
2016-03-20T04:24:06.526Z,0
2016-03-20T04:25:06.544Z,0
2016-03-20T04:26:06.532Z,0
2016-03-20T04:27:06.524Z,0
2016-03-20T04:28:06.514Z,0
2016-03-20T04:29:06.504Z,0
2016-03-20T04:30:06.494Z,0
2016-03-20T04:31:06.453Z,0
2016-03-20T04:32:06.465Z,0
2016-03-20T04:33:06.463Z,0
2016-03-20T04:34:06.446Z,0
2016-03-20T04:35:06.475Z,0
2016-03-20T04:36:06.442Z,0
2016-03-20T04:37:06.584Z,0
2016-03-20T04:38:06.460Z,0
2016-03-20T04:39:06.429Z,0
2016-03-20T04:40:06.446Z,0
2016-03-20T04:41:06.416Z,0
2016-03-20T04:42:06.418Z,0
2016-03-20T04:43:06.435Z,0
2016-03-20T04:44:06.422Z,0
2016-03-20T04:45:06.438Z,0
2016-03-20T04:46:06.440Z,0
2016-03-20T04:47:06.428Z,0
2016-03-20T04:48:06.478Z,0
2016-03-20T04:49:06.417Z,0
2016-03-20T04:50:06.420Z,0
2016-03-20T04:51:06.423Z,0
2016-03-20T04:52:06.409Z,0
2016-03-20T04:53:06.428Z,0
2016-03-20T04:54:06.400Z,0
2016-03-20T04:55:06.417Z,0
2016-03-20T04:56:06.453Z,0
2016-03-20T04:57:06.408Z,0
2016-03-20T04:58:06.441Z,0
2016-03-20T04:59:06.414Z,0
2016-03-20T05:00:06.260Z,0
2016-03-20T05:01:06.433Z,0
2016-03-20T05:02:06.406Z,0
2016-03-20T05:03:06.439Z,0
2016-03-20T05:04:06.396Z,0
2016-03-20T05:05:06.414Z,0
2016-03-20T05:06:06.416Z,0
2016-03-20T05:07:06.387Z,0
2016-03-20T05:08:06.422Z,0
2016-03-20T05:09:06.252Z,0
2016-03-20T05:10:06.395Z,0
2016-03-20T05:11:06.415Z,0
2016-03-20T05:12:06.401Z,0
2016-03-20T05:13:06.420Z,0
2016-03-20T05:14:06.407Z,0
2016-03-20T05:15:06.393Z,0
2016-03-20T05:16:06.428Z,0
2016-03-20T05:17:06.384Z,0
2016-03-20T05:18:06.386Z,0
2016-03-20T05:19:06.420Z,0
2016-03-20T05:20:06.392Z,0
2016-03-20T05:21:06.410Z,0
2016-03-20T05:22:06.397Z,0
2016-03-20T05:23:06.400Z,0
2016-03-20T05:24:06.418Z,0
2016-03-20T05:25:06.373Z,0
2016-03-20T05:26:06.392Z,0
2016-03-20T05:27:06.425Z,0
2016-03-20T05:28:06.381Z,0
2016-03-20T05:29:06.399Z,0
2016-03-20T05:30:06.372Z,0
2016-03-20T05:31:06.389Z,0
2016-03-20T05:32:06.377Z,0
2016-03-20T05:33:06.395Z,0
2016-03-20T05:34:06.397Z,0
2016-03-20T05:35:06.385Z,0
2016-03-20T05:36:06.403Z,0
2016-03-20T05:37:06.374Z,0
2016-03-20T05:38:06.362Z,0
2016-03-20T05:39:06.427Z,0
2016-03-20T05:40:06.351Z,0
2016-03-20T05:41:06.386Z,0
2016-03-20T05:42:06.419Z,0
2016-03-20T05:43:06.359Z,0
2016-03-20T05:44:06.379Z,0
2016-03-20T05:45:06.365Z,0
2016-03-20T05:46:06.383Z,0
2016-03-20T05:47:06.417Z,0
2016-03-20T05:48:06.357Z,0
2016-03-20T05:49:06.392Z,0
2016-03-20T05:50:06.379Z,0
2016-03-20T05:51:06.381Z,0
2016-03-20T05:52:06.353Z,0
2016-03-20T05:53:06.371Z,0
2016-03-20T05:54:06.389Z,0
2016-03-20T05:55:06.360Z,0
2016-03-20T05:56:06.378Z,5
2016-03-20T05:57:06.381Z,5
2016-03-20T05:58:06.353Z,5
2016-03-20T05:59:06.387Z,5
2016-03-20T06:00:06.374Z,5
2016-03-20T06:01:06.361Z,5
2016-03-20T06:02:06.255Z,5
2016-03-20T06:03:06.366Z,5
2016-03-20T06:04:06.369Z,5
2016-03-20T06:05:06.340Z,5
2016-03-20T06:06:06.391Z,5
2016-03-20T06:07:06.361Z,5
2016-03-20T06:08:06.349Z,5
2016-03-20T06:09:06.383Z,5
2016-03-20T06:10:06.354Z,5
2016-03-20T06:11:06.357Z,5
2016-03-20T06:12:06.374Z,5
2016-03-20T06:13:06.346Z,5
2016-03-20T06:14:06.364Z,5
2016-03-20T06:15:06.352Z,5
2016-03-20T06:16:06.339Z,5
2016-03-20T06:17:06.342Z,5
2016-03-20T06:18:06.345Z,5
2016-03-20T06:19:06.378Z,5
2016-03-20T06:20:06.334Z,5
2016-03-20T06:21:06.368Z,10
2016-03-20T06:22:06.339Z,10
2016-03-20T06:23:06.326Z,10
2016-03-20T06:24:06.360Z,10
2016-03-20T06:25:06.331Z,10
2016-03-20T06:26:06.397Z,10
2016-03-20T06:27:06.353Z,10
2016-03-20T06:28:06.324Z,10
2016-03-20T06:29:06.342Z,10
2016-03-20T06:30:06.345Z,10
2016-03-20T06:31:06.176Z,10
2016-03-20T06:32:06.336Z,10
2016-03-20T06:33:06.322Z,10
2016-03-20T06:34:06.216Z,10
2016-03-20T06:35:06.328Z,10
2016-03-20T06:36:06.361Z,10
2016-03-20T06:37:06.332Z,10
2016-03-20T06:38:06.351Z,10
2016-03-20T06:39:06.354Z,10
2016-03-20T06:40:06.310Z,15
2016-03-20T06:41:06.327Z,15
2016-03-20T06:42:06.346Z,15
2016-03-20T06:43:06.302Z,15
2016-03-20T06:44:06.321Z,15
2016-03-20T06:45:06.370Z,15
2016-03-20T06:46:06.326Z,15
2016-03-20T06:47:06.329Z,15
2016-03-20T06:48:06.332Z,15
2016-03-20T06:49:06.318Z,15
2016-03-20T06:50:06.320Z,15
2016-03-20T06:51:06.340Z,15
2016-03-20T06:52:06.311Z,15
2016-03-20T06:53:06.173Z,15
2016-03-20T06:54:06.363Z,15
2016-03-20T06:55:06.303Z,15
2016-03-20T06:56:06.322Z,15
2016-03-20T06:57:06.309Z,15
2016-03-20T06:58:06.327Z,15
2016-03-20T06:59:06.173Z,15
2016-03-20T07:00:06.301Z,20
2016-03-20T07:01:06.319Z,20
2016-03-20T07:02:06.338Z,20
2016-03-20T07:03:06.325Z,20
2016-03-20T07:04:06.311Z,20
2016-03-20T07:05:06.299Z,20
2016-03-20T07:06:06.349Z,20
2016-03-20T07:07:06.304Z,20
2016-03-20T07:08:06.307Z,20
2016-03-20T07:09:06.341Z,20
2016-03-20T07:10:06.312Z,20
2016-03-20T07:11:06.331Z,20
2016-03-20T07:12:06.302Z,20
2016-03-20T07:13:06.305Z,20
2016-03-20T07:14:06.338Z,20
2016-03-20T07:15:06.294Z,20
2016-03-20T07:16:06.313Z,20
2016-03-20T07:17:06.284Z,25
2016-03-20T07:18:06.287Z,25
2016-03-20T07:19:06.320Z,25
2016-03-20T07:20:06.293Z,25
2016-03-20T07:21:06.310Z,25
2016-03-20T07:22:06.298Z,25
2016-03-20T07:23:06.284Z,25
2016-03-20T07:24:06.318Z,25
2016-03-20T07:25:06.306Z,25
2016-03-20T07:26:06.308Z,25
2016-03-20T07:27:06.295Z,25
2016-03-20T07:28:06.298Z,25
2016-03-20T07:29:06.316Z,30
2016-03-20T07:30:06.288Z,30
2016-03-20T07:31:06.291Z,30
2016-03-20T07:32:06.308Z,30
2016-03-20T07:33:06.281Z,30
2016-03-20T07:34:06.314Z,30
2016-03-20T07:35:06.285Z,30
2016-03-20T07:36:06.289Z,30
2016-03-20T07:37:06.291Z,30
2016-03-20T07:38:06.280Z,30
2016-03-20T07:39:06.269Z,35
2016-03-20T07:40:06.286Z,35
2016-03-20T07:41:06.304Z,35
2016-03-20T07:42:06.277Z,35
2016-03-20T07:43:06.310Z,35
2016-03-20T07:44:06.282Z,35
2016-03-20T07:45:06.269Z,35
2016-03-20T07:46:06.302Z,35
2016-03-20T07:47:06.290Z,35
2016-03-20T07:48:06.277Z,35
2016-03-20T07:49:06.295Z,35
2016-03-20T07:50:06.282Z,35
2016-03-20T07:51:06.301Z,35
2016-03-20T07:52:06.271Z,35
2016-03-20T07:53:06.291Z,35
2016-03-20T07:54:06.293Z,35
2016-03-20T07:55:06.264Z,35
2016-03-20T07:56:06.299Z,40
2016-03-20T07:57:06.301Z,40
2016-03-20T07:58:06.288Z,40
2016-03-20T07:59:06.290Z,40
2016-03-20T08:00:06.262Z,45
2016-03-20T08:01:06.295Z,45
2016-03-20T08:02:06.284Z,45
2016-03-20T08:03:06.114Z,45
2016-03-20T08:04:06.303Z,45
2016-03-20T08:05:06.276Z,45
2016-03-20T08:06:06.278Z,45
2016-03-20T08:07:06.109Z,45
2016-03-20T08:08:06.283Z,45
2016-03-20T08:09:06.286Z,50
2016-03-20T08:10:06.258Z,50
2016-03-20T08:11:06.291Z,50
2016-03-20T08:12:06.294Z,50
2016-03-20T08:13:06.266Z,50
2016-03-20T08:14:06.300Z,50
2016-03-20T08:15:06.255Z,50
2016-03-20T08:16:06.289Z,50
2016-03-20T08:17:06.260Z,50
2016-03-20T08:18:06.279Z,50
2016-03-20T08:19:06.266Z,55
2016-03-20T08:20:06.269Z,55
2016-03-20T08:21:06.271Z,55
2016-03-20T08:22:06.274Z,55
2016-03-20T08:23:06.277Z,60
2016-03-20T08:24:06.264Z,60
2016-03-20T08:25:06.282Z,60
2016-03-20T08:26:06.316Z,60
2016-03-20T08:27:06.256Z,65
2016-03-20T08:28:06.260Z,65
2016-03-20T08:29:06.262Z,65
2016-03-20T08:30:06.265Z,70
2016-03-20T08:31:06.283Z,70
2016-03-20T08:32:06.270Z,70
2016-03-20T08:33:06.273Z,75
2016-03-20T08:34:06.259Z,75
2016-03-20T08:35:06.278Z,75
2016-03-20T08:36:06.281Z,75
2016-03-20T08:37:06.268Z,75
2016-03-20T08:38:06.286Z,75
2016-03-20T08:39:06.273Z,75
2016-03-20T08:40:06.417Z,75
2016-03-20T08:41:06.278Z,70
2016-03-20T08:42:06.266Z,75
2016-03-20T08:43:06.283Z,75
2016-03-20T08:44:06.255Z,75
2016-03-20T08:45:06.117Z,75
2016-03-20T08:46:06.261Z,75
2016-03-20T08:47:06.263Z,75
2016-03-20T08:48:06.250Z,75
2016-03-20T08:49:06.285Z,75
2016-03-20T08:50:06.349Z,75
2016-03-20T08:51:06.258Z,75
2016-03-20T08:52:06.261Z,75
2016-03-20T08:53:06.263Z,75
2016-03-20T08:54:06.266Z,75
2016-03-20T08:55:06.098Z,75
2016-03-20T08:56:06.304Z,80
2016-03-20T08:57:06.259Z,80
2016-03-20T08:58:06.262Z,80
2016-03-20T08:59:06.249Z,80
2016-03-20T09:00:06.251Z,80
2016-03-20T09:01:06.270Z,80
2016-03-20T09:02:06.256Z,80
2016-03-20T09:03:06.260Z,80
2016-03-20T09:04:06.293Z,80
2016-03-20T09:05:06.264Z,80
2016-03-20T09:06:06.283Z,80
2016-03-20T09:07:05.958Z,85
2016-03-20T09:08:06.258Z,85
2016-03-20T09:09:06.291Z,85
2016-03-20T09:10:06.263Z,85
2016-03-20T09:11:06.266Z,85
2016-03-20T09:12:06.284Z,85
2016-03-20T09:13:06.255Z,85
2016-03-20T09:14:06.274Z,85
2016-03-20T09:15:06.245Z,90
2016-03-20T09:16:06.263Z,90
2016-03-20T09:17:06.250Z,90
2016-03-20T09:18:06.253Z,90
2016-03-20T09:19:06.302Z,90
2016-03-20T09:20:06.258Z,90
2016-03-20T09:21:06.261Z,90
2016-03-20T09:22:06.263Z,90
2016-03-20T09:23:06.266Z,95
2016-03-20T09:24:06.332Z,95
2016-03-20T09:25:06.240Z,100
2016-03-20T09:26:06.134Z,105
2016-03-20T09:27:06.246Z,105
2016-03-20T09:28:06.248Z,105
2016-03-20T09:29:06.299Z,105
2016-03-20T09:30:06.238Z,100
2016-03-20T09:31:06.272Z,100
2016-03-20T09:32:06.276Z,100
2016-03-20T09:33:06.262Z,100
2016-03-20T09:34:06.295Z,100
2016-03-20T09:35:06.251Z,100
2016-03-20T09:36:06.254Z,100
2016-03-20T09:37:06.257Z,100
2016-03-20T09:38:06.260Z,95
2016-03-20T09:39:06.278Z,95
2016-03-20T09:40:06.250Z,95
2016-03-20T09:41:06.268Z,95
2016-03-20T09:42:06.270Z,100
2016-03-20T09:43:06.272Z,100
2016-03-20T09:44:06.261Z,100
2016-03-20T09:45:06.263Z,100
2016-03-20T09:46:06.266Z,100
2016-03-20T09:47:06.269Z,100
2016-03-20T09:48:06.302Z,100
2016-03-20T09:49:06.274Z,100
2016-03-20T09:50:06.277Z,105
2016-03-20T09:51:06.264Z,105
2016-03-20T09:52:06.297Z,105
2016-03-20T09:53:06.254Z,110
2016-03-20T09:54:06.257Z,110
2016-03-20T09:55:06.274Z,110
2016-03-20T09:56:06.262Z,115
2016-03-20T09:57:06.296Z,115
2016-03-20T09:58:06.267Z,120
2016-03-20T09:59:06.301Z,120
2016-03-20T10:00:06.303Z,120
2016-03-20T10:01:06.259Z,125
2016-03-20T10:02:06.293Z,120
2016-03-20T10:03:06.265Z,125
2016-03-20T10:04:06.267Z,125
2016-03-20T10:05:06.301Z,125
2016-03-20T10:06:06.273Z,125
2016-03-20T10:07:06.291Z,125
2016-03-20T10:08:06.309Z,125
2016-03-20T10:09:06.280Z,130
2016-03-20T10:10:06.284Z,130
2016-03-20T10:11:06.302Z,130
2016-03-20T10:12:06.305Z,125
2016-03-20T10:13:06.276Z,125
2016-03-20T10:14:06.278Z,120
2016-03-20T10:15:06.281Z,120
2016-03-20T10:16:06.268Z,125
2016-03-20T10:17:06.286Z,125
2016-03-20T10:18:06.289Z,125
2016-03-20T10:19:06.291Z,125
2016-03-20T10:20:06.311Z,125
2016-03-20T10:21:06.282Z,130
2016-03-20T10:22:06.285Z,135
2016-03-20T10:23:06.288Z,135
2016-03-20T10:24:06.290Z,135
2016-03-20T10:25:06.293Z,140
2016-03-20T10:26:06.311Z,140
2016-03-20T10:27:06.298Z,145
2016-03-20T10:28:06.301Z,145
2016-03-20T10:29:06.335Z,145
2016-03-20T10:30:06.322Z,150
2016-03-20T10:31:06.309Z,150
2016-03-20T10:32:06.312Z,150
2016-03-20T10:33:06.315Z,155
2016-03-20T10:34:06.301Z,155
2016-03-20T10:35:06.288Z,155
2016-03-20T10:36:06.306Z,160
2016-03-20T10:37:06.294Z,160
2016-03-20T10:38:06.296Z,160
2016-03-20T10:39:06.314Z,160
2016-03-20T10:40:06.333Z,155
2016-03-20T10:41:06.336Z,155
2016-03-20T10:42:06.322Z,155
2016-03-20T10:43:06.309Z,155
2016-03-20T10:44:06.312Z,150
2016-03-20T10:45:06.300Z,150
2016-03-20T10:46:06.302Z,150
2016-03-20T10:47:06.320Z,150
2016-03-20T10:48:06.339Z,150
2016-03-20T10:49:06.372Z,155
2016-03-20T10:50:06.328Z,155
2016-03-20T10:51:06.331Z,160
2016-03-20T10:52:06.318Z,165
2016-03-20T10:53:06.322Z,165
2016-03-20T10:54:06.339Z,170
2016-03-20T10:55:06.326Z,170
2016-03-20T10:56:06.313Z,165
2016-03-20T10:57:06.316Z,165
2016-03-20T10:58:06.318Z,165
2016-03-20T10:59:06.321Z,170
2016-03-20T11:00:06.340Z,165
2016-03-20T11:01:06.343Z,165
2016-03-20T11:02:06.360Z,165
2016-03-20T11:03:06.410Z,165
2016-03-20T11:04:06.335Z,165
2016-03-20T11:05:06.353Z,165
2016-03-20T11:06:06.340Z,170
2016-03-20T11:07:06.358Z,175
2016-03-20T11:08:06.345Z,170
2016-03-20T11:09:06.349Z,165
2016-03-20T11:10:06.351Z,165
2016-03-20T11:11:06.353Z,165
2016-03-20T11:12:06.341Z,170
2016-03-20T11:13:06.344Z,170
2016-03-20T11:14:06.346Z,175
2016-03-20T11:15:06.349Z,180
2016-03-20T11:16:06.367Z,180
2016-03-20T11:17:06.370Z,185
2016-03-20T11:18:06.372Z,190
2016-03-20T11:19:06.360Z,195
2016-03-20T11:20:06.363Z,195
2016-03-20T11:21:06.365Z,195
2016-03-20T11:22:06.368Z,195
2016-03-20T11:23:06.371Z,195
2016-03-20T11:24:06.388Z,190
2016-03-20T11:25:06.377Z,185
2016-03-20T11:26:06.379Z,185
2016-03-20T11:27:06.397Z,185
2016-03-20T11:28:06.384Z,190
2016-03-20T11:29:06.371Z,185
2016-03-20T11:30:06.390Z,190
2016-03-20T11:31:06.392Z,195
2016-03-20T11:32:06.410Z,195
2016-03-20T11:33:06.444Z,195
2016-03-20T11:34:06.401Z,190
2016-03-20T11:35:06.403Z,190
2016-03-20T11:36:06.405Z,185
2016-03-20T11:37:06.409Z,180
2016-03-20T11:38:06.426Z,180
2016-03-20T11:39:06.397Z,180
2016-03-20T11:40:06.400Z,180
2016-03-20T11:41:08.762Z,185
2016-03-20T11:42:06.406Z,185
2016-03-20T11:43:06.425Z,180
2016-03-20T11:44:06.412Z,175
2016-03-20T11:45:06.430Z,165
2016-03-20T11:46:06.432Z,160
2016-03-20T11:47:06.419Z,160
2016-03-20T11:48:06.438Z,150
2016-03-20T11:49:35.081Z,150
2016-03-20T11:50:06.443Z,150
2016-03-20T11:51:06.430Z,155
2016-03-20T11:52:06.449Z,160
2016-03-20T11:53:06.417Z,160
2016-03-20T11:54:06.438Z,165
2016-03-20T11:55:06.471Z,165
2016-03-20T11:56:06.440Z,165
2016-03-20T11:57:06.443Z,160
2016-03-20T11:58:06.462Z,160
2016-03-20T11:59:06.449Z,160
2016-03-20T12:00:06.452Z,160
2016-03-20T12:01:06.455Z,155
2016-03-20T12:02:06.457Z,150
2016-03-20T12:03:06.491Z,150
2016-03-20T12:04:06.479Z,145
2016-03-20T12:05:06.496Z,140
2016-03-20T12:06:06.451Z,135
2016-03-20T12:07:06.486Z,130
2016-03-20T12:08:06.473Z,135
2016-03-20T12:09:06.475Z,135
2016-03-20T12:10:06.495Z,130
2016-03-20T12:11:06.481Z,125
2016-03-20T12:12:06.484Z,120
2016-03-20T12:13:06.534Z,115
2016-03-20T12:14:06.474Z,110
2016-03-20T12:15:06.523Z,110
2016-03-20T12:16:06.494Z,105
2016-03-20T12:17:06.497Z,105
2016-03-20T12:18:06.547Z,105
2016-03-20T12:19:06.502Z,100
2016-03-20T12:20:06.521Z,100
2016-03-20T12:21:06.508Z,100
2016-03-20T12:22:06.511Z,100
2016-03-20T12:23:06.529Z,100
2016-03-20T12:24:06.500Z,100
2016-03-20T12:25:06.535Z,100
2016-03-20T12:26:06.521Z,100
2016-03-20T12:27:06.509Z,100
2016-03-20T12:28:06.558Z,95
2016-03-20T12:29:06.529Z,95
2016-03-20T12:30:06.533Z,95
2016-03-20T12:31:06.535Z,95
2016-03-20T12:32:06.537Z,95
2016-03-20T12:33:06.541Z,95
2016-03-20T12:34:06.543Z,95
2016-03-20T12:35:06.546Z,95
2016-03-20T12:36:06.518Z,95
2016-03-20T12:37:06.567Z,95
2016-03-20T12:38:06.413Z,95
2016-03-20T12:39:06.541Z,95
2016-03-20T12:40:06.559Z,95
2016-03-20T12:41:06.578Z,95
2016-03-20T12:42:06.565Z,90
2016-03-20T12:43:06.599Z,90
2016-03-20T12:44:06.570Z,90
2016-03-20T12:45:06.572Z,90
2016-03-20T12:46:06.575Z,90
2016-03-20T12:47:06.578Z,90
2016-03-20T12:48:06.581Z,90
2016-03-20T12:49:06.584Z,90
2016-03-20T12:50:06.602Z,90
2016-03-20T12:51:06.573Z,90
2016-03-20T12:52:06.592Z,90
2016-03-20T12:53:06.641Z,90
2016-03-20T12:54:06.581Z,90
2016-03-20T12:55:06.616Z,90
2016-03-20T12:56:06.586Z,90
2016-03-20T12:57:06.605Z,90
2016-03-20T12:58:06.638Z,90
2016-03-20T12:59:06.594Z,90
2016-03-20T13:00:06.597Z,90
2016-03-20T13:01:06.599Z,85
2016-03-20T13:02:06.587Z,85
2016-03-20T13:03:06.652Z,85
2016-03-20T13:04:06.624Z,85
2016-03-20T13:05:06.642Z,85
2016-03-20T13:06:06.613Z,85
2016-03-20T13:07:06.632Z,85
2016-03-20T13:08:06.603Z,85
2016-03-20T13:09:06.607Z,85
2016-03-20T13:10:06.656Z,85
2016-03-20T13:11:06.627Z,85
2016-03-20T13:12:06.629Z,85
2016-03-20T13:13:06.617Z,85
2016-03-20T13:14:06.635Z,85
2016-03-20T13:15:06.637Z,85
2016-03-20T13:16:06.625Z,85
2016-03-20T13:17:06.659Z,85
2016-03-20T13:18:06.631Z,85
2016-03-20T13:19:06.648Z,85
2016-03-20T13:20:06.651Z,80
2016-03-20T13:21:06.623Z,80
2016-03-20T13:22:06.656Z,80
2016-03-20T13:23:06.644Z,80
2016-03-20T13:24:06.647Z,80
2016-03-20T13:25:06.650Z,80
2016-03-20T13:26:06.636Z,80
2016-03-20T13:27:06.655Z,80
2016-03-20T13:28:06.641Z,80
2016-03-20T13:29:06.675Z,80
2016-03-20T13:30:06.647Z,80
2016-03-20T13:31:06.666Z,80
2016-03-20T13:32:06.498Z,80
2016-03-20T13:33:06.640Z,80
2016-03-20T13:34:06.661Z,80
2016-03-20T13:35:06.633Z,80
2016-03-20T13:36:06.604Z,80
2016-03-20T13:37:06.624Z,80
2016-03-20T13:38:06.581Z,80
2016-03-20T13:39:06.578Z,80
2016-03-20T13:40:06.575Z,80
2016-03-20T13:41:06.573Z,80
2016-03-20T13:42:06.586Z,80
2016-03-20T13:43:06.567Z,80
2016-03-20T13:44:06.584Z,80
2016-03-20T13:45:06.601Z,75
2016-03-20T13:46:06.570Z,75
2016-03-20T13:47:06.603Z,75
2016-03-20T13:48:06.587Z,75
2016-03-20T13:49:06.589Z,75
2016-03-20T13:50:06.590Z,75
2016-03-20T13:51:06.576Z,75
2016-03-20T13:52:06.578Z,75
2016-03-20T13:53:06.580Z,75
2016-03-20T13:54:06.568Z,75
2016-03-20T13:55:06.586Z,75
2016-03-20T13:56:06.573Z,75
2016-03-20T13:57:06.575Z,75
2016-03-20T13:58:06.592Z,75
2016-03-20T13:59:06.580Z,75
2016-03-20T14:00:06.582Z,75
2016-03-20T14:01:06.585Z,75
2016-03-20T14:02:06.603Z,75
2016-03-20T14:03:06.591Z,75
2016-03-20T14:04:06.578Z,75
2016-03-20T14:05:06.581Z,75
2016-03-20T14:06:06.583Z,75
2016-03-20T14:07:06.586Z,75
2016-03-20T14:08:06.604Z,75
2016-03-20T14:09:06.591Z,75
2016-03-20T14:10:06.610Z,75
2016-03-20T14:11:06.596Z,75
2016-03-20T14:12:06.615Z,70
2016-03-20T14:13:06.617Z,70
2016-03-20T14:14:06.620Z,70
2016-03-20T14:15:06.607Z,70
2016-03-20T14:16:06.609Z,70
2016-03-20T14:17:06.597Z,70
2016-03-20T14:18:06.615Z,70
2016-03-20T14:19:06.603Z,70
2016-03-20T14:20:06.637Z,70
2016-03-20T14:21:06.639Z,70
2016-03-20T14:22:06.626Z,70